sensor_id;sensor_type;location;lat;lon;timestamp;pressure;altitude;pressure_sealevel;temperature;humidity
33265;BME280;31404;53.974;-1.086;2023-09-07T00:00:34;101993.81;;;20.48;86.23
33265;BME280;31404;53.974;-1.086;2023-09-07T00:05:34;101981.98;;;21.30;81.79
33265;BME280;31404;53.974;-1.086;2023-09-07T00:10:34;101984.01;;;22.28;77.24
33265;BME280;31404;53.974;-1.086;2023-09-07T00:15:45;101979.50;;;22.75;75.15
33265;BME280;31404;53.974;-1.086;2023-09-07T00:20:35;101980.08;;;22.49;75.73
33265;BME280;31404;53.974;-1.086;2023-09-07T00:25:35;101982.75;;;21.61;79.58
33265;BME280;31404;53.974;-1.086;2023-09-07T00:30:34;101969.25;;;22.73;74.85
33265;BME280;31404;53.974;-1.086;2023-09-07T00:35:35;101966.69;;;22.54;75.17
33265;BME280;31404;53.974;-1.086;2023-09-07T00:40:35;101959.86;;;22.36;75.67
33265;BME280;31404;53.974;-1.086;2023-09-07T00:45:35;101958.60;;;22.08;77.05
33265;BME280;31404;53.974;-1.086;2023-09-07T00:50:35;101950.75;;;22.29;75.98
33265;BME280;31404;53.974;-1.086;2023-09-07T00:55:36;101947.13;;;22.62;74.62
33265;BME280;31404;53.974;-1.086;2023-09-07T01:00:35;101944.11;;;22.39;75.24
33265;BME280;31404;53.974;-1.086;2023-09-07T01:10:34;101951.44;;;21.33;81.04
33265;BME280;31404;53.974;-1.086;2023-09-07T01:15:34;101964.92;;;20.47;83.59
33265;BME280;31404;53.974;-1.086;2023-09-07T01:20:35;101951.25;;;21.20;81.54
33265;BME280;31404;53.974;-1.086;2023-09-07T01:25:35;101945.21;;;21.43;80.87
33265;BME280;31404;53.974;-1.086;2023-09-07T01:30:36;101943.38;;;21.16;79.69
33265;BME280;31404;53.974;-1.086;2023-09-07T01:35:35;101964.57;;;20.39;85.48
33265;BME280;31404;53.974;-1.086;2023-09-07T01:40:34;101951.12;;;22.02;77.89
33265;BME280;31404;53.974;-1.086;2023-09-07T01:45:34;101945.22;;;21.31;80.67
33265;BME280;31404;53.974;-1.086;2023-09-07T01:50:35;101935.87;;;21.73;78.32
33265;BME280;31404;53.974;-1.086;2023-09-07T01:55:34;101929.06;;;21.27;79.83
33265;BME280;31404;53.974;-1.086;2023-09-07T02:00:37;101940.08;;;20.27;83.82
33265;BME280;31404;53.974;-1.086;2023-09-07T02:05:35;101936.21;;;20.61;84.66
33265;BME280;31404;53.974;-1.086;2023-09-07T02:10:34;101937.53;;;21.58;79.16
33265;BME280;31404;53.974;-1.086;2023-09-07T02:20:34;101928.11;;;21.98;76.68
33265;BME280;31404;53.974;-1.086;2023-09-07T02:25:34;101936.32;;;20.91;79.89
33265;BME280;31404;53.974;-1.086;2023-09-07T02:30:34;101949.05;;;20.96;80.44
33265;BME280;31404;53.974;-1.086;2023-09-07T02:35:37;101947.56;;;20.55;82.39
33265;BME280;31404;53.974;-1.086;2023-09-07T02:45:35;101925.79;;;20.47;82.34
33265;BME280;31404;53.974;-1.086;2023-09-07T02:50:35;101937.13;;;19.16;89.26
33265;BME280;31404;53.974;-1.086;2023-09-07T02:55:35;101946.68;;;18.45;95.96
33265;BME280;31404;53.974;-1.086;2023-09-07T03:00:34;101938.42;;;20.86;84.13
33265;BME280;31404;53.974;-1.086;2023-09-07T03:05:34;101934.30;;;21.36;80.58
33265;BME280;31404;53.974;-1.086;2023-09-07T03:10:36;101930.62;;;21.89;77.83
33265;BME280;31404;53.974;-1.086;2023-09-07T03:15:35;101918.62;;;21.93;76.68
33265;BME280;31404;53.974;-1.086;2023-09-07T03:20:34;101930.63;;;20.22;84.48
33265;BME280;31404;53.974;-1.086;2023-09-07T03:25:35;101930.49;;;21.15;80.66
33265;BME280;31404;53.974;-1.086;2023-09-07T03:30:35;101933.52;;;21.86;77.16
33265;BME280;31404;53.974;-1.086;2023-09-07T03:35:35;101927.90;;;21.71;77.35
33265;BME280;31404;53.974;-1.086;2023-09-07T03:40:34;101926.53;;;20.95;79.39
33265;BME280;31404;53.974;-1.086;2023-09-07T03:45:35;101915.24;;;22.03;76.02
33265;BME280;31404;53.974;-1.086;2023-09-07T03:50:35;101904.37;;;21.79;76.30
33265;BME280;31404;53.974;-1.086;2023-09-07T04:00:37;101925.49;;;18.05;95.39
33265;BME280;31404;53.974;-1.086;2023-09-07T04:05:36;101926.33;;;19.58;90.44
33265;BME280;31404;53.974;-1.086;2023-09-07T04:10:36;101917.57;;;20.82;82.75
33265;BME280;31404;53.974;-1.086;2023-09-07T04:20:35;101929.90;;;19.07;89.63
33265;BME280;31404;53.974;-1.086;2023-09-07T04:25:34;101937.92;;;18.10;96.02
33265;BME280;31404;53.974;-1.086;2023-09-07T04:35:34;101960.46;;;17.11;100.00
33265;BME280;31404;53.974;-1.086;2023-09-07T04:40:34;101966.96;;;15.05;100.00
33265;BME280;31404;53.974;-1.086;2023-09-07T04:45:35;101954.05;;;17.14;100.00
33265;BME280;31404;53.974;-1.086;2023-09-07T04:50:35;101947.55;;;19.58;100.00
33265;BME280;31404;53.974;-1.086;2023-09-07T04:55:37;101942.11;;;20.01;95.18
33265;BME280;31404;53.974;-1.086;2023-09-07T05:00:34;101926.34;;;19.90;93.24
33265;BME280;31404;53.974;-1.086;2023-09-07T05:05:34;101921.67;;;20.44;89.88
33265;BME280;31404;53.974;-1.086;2023-09-07T05:10:34;101933.59;;;18.48;99.31
33265;BME280;31404;53.974;-1.086;2023-09-07T05:15:34;101935.88;;;19.98;92.28
33265;BME280;31404;53.974;-1.086;2023-09-07T05:20:34;101938.82;;;19.66;94.26
33265;BME280;31404;53.974;-1.086;2023-09-07T05:30:35;101918.01;;;19.93;90.49
33265;BME280;31404;53.974;-1.086;2023-09-07T05:35:35;101900.25;;;20.84;87.36
33265;BME280;31404;53.974;-1.086;2023-09-07T05:40:30;101893.58;;;20.96;85.41
33265;BME280;31404;53.974;-1.086;2023-09-07T05:45:37;101900.36;;;21.23;84.32
33265;BME280;31404;53.974;-1.086;2023-09-07T05:50:36;101895.91;;;21.44;83.33
33265;BME280;31404;53.974;-1.086;2023-09-07T05:55:34;101895.71;;;20.54;86.62
33265;BME280;31404;53.974;-1.086;2023-09-07T06:00:35;101893.93;;;21.64;82.88
33265;BME280;31404;53.974;-1.086;2023-09-07T06:05:35;101904.97;;;18.31;100.00
33265;BME280;31404;53.974;-1.086;2023-09-07T06:10:35;101908.86;;;19.07;100.00
33265;BME280;31404;53.974;-1.086;2023-09-07T06:15:34;101906.08;;;20.33;89.43
33265;BME280;31404;53.974;-1.086;2023-09-07T06:20:34;101903.66;;;21.25;85.58
33265;BME280;31404;53.974;-1.086;2023-09-07T06:25:34;101910.46;;;21.03;86.67
33265;BME280;31404;53.974;-1.086;2023-09-07T06:30:34;101922.10;;;20.63;87.91
33265;BME280;31404;53.974;-1.086;2023-09-07T06:35:34;101942.44;;;19.43;93.93
33265;BME280;31404;53.974;-1.086;2023-09-07T06:40:34;101942.59;;;20.55;89.74
33265;BME280;31404;53.974;-1.086;2023-09-07T06:45:35;101942.85;;;19.75;94.08
33265;BME280;31404;53.974;-1.086;2023-09-07T06:50:35;101934.46;;;21.50;85.02
33265;BME280;31404;53.974;-1.086;2023-09-07T06:55:35;101933.99;;;21.16;86.18
33265;BME280;31404;53.974;-1.086;2023-09-07T07:00:35;101936.38;;;21.28;85.01
33265;BME280;31404;53.974;-1.086;2023-09-07T07:05:35;101948.86;;;21.47;84.69
33265;BME280;31404;53.974;-1.086;2023-09-07T07:10:35;101965.52;;;20.84;88.09
33265;BME280;31404;53.974;-1.086;2023-09-07T07:15:35;101960.05;;;20.77;90.07
33265;BME280;31404;53.974;-1.086;2023-09-07T07:20:34;101962.32;;;21.01;88.33
33265;BME280;31404;53.974;-1.086;2023-09-07T07:25:34;101960.99;;;21.33;86.60
33265;BME280;31404;53.974;-1.086;2023-09-07T07:30:36;101960.45;;;18.78;100.00
33265;BME280;31404;53.974;-1.086;2023-09-07T07:35:35;101955.96;;;17.85;100.00
33265;BME280;31404;53.974;-1.086;2023-09-07T07:40:34;101949.23;;;17.54;100.00
33265;BME280;31404;53.974;-1.086;2023-09-07T07:45:34;101937.80;;;20.59;93.95
33265;BME280;31404;53.974;-1.086;2023-09-07T07:55:35;101958.04;;;20.32;89.77
33265;BME280;31404;53.974;-1.086;2023-09-07T08:00:35;101957.10;;;21.53;81.53
33265;BME280;31404;53.974;-1.086;2023-09-07T08:05:29;101954.71;;;21.47;82.86
33265;BME280;31404;53.974;-1.086;2023-09-07T08:10:34;101952.33;;;21.05;84.61
33265;BME280;31404;53.974;-1.086;2023-09-07T08:15:34;101947.56;;;21.44;82.39
33265;BME280;31404;53.974;-1.086;2023-09-07T08:20:34;101938.12;;;20.71;84.62
33265;BME280;31404;53.974;-1.086;2023-09-07T08:25:35;101934.98;;;21.62;79.68
33265;BME280;31404;53.974;-1.086;2023-09-07T08:30:35;101931.79;;;21.42;80.52
33265;BME280;31404;53.974;-1.086;2023-09-07T08:35:35;101925.73;;;22.12;79.34
33265;BME280;31404;53.974;-1.086;2023-09-07T08:40:35;101924.08;;;21.44;80.05
33265;BME280;31404;53.974;-1.086;2023-09-07T08:50:36;101918.73;;;22.23;73.62
33265;BME280;31404;53.974;-1.086;2023-09-07T08:55:34;101905.70;;;22.88;74.19
33265;BME280;31404;53.974;-1.086;2023-09-07T09:00:34;101901.47;;;23.27;74.16
33265;BME280;31404;53.974;-1.086;2023-09-07T09:05:36;101898.33;;;22.43;77.13
33265;BME280;31404;53.974;-1.086;2023-09-07T09:10:34;101906.04;;;23.35;72.06
33265;BME280;31404;53.974;-1.086;2023-09-07T09:15:35;101904.22;;;21.80;74.07
33265;BME280;31404;53.974;-1.086;2023-09-07T09:20:34;101903.15;;;23.03;70.23
33265;BME280;31404;53.974;-1.086;2023-09-07T09:25:35;101908.54;;;23.26;69.35
33265;BME280;31404;53.974;-1.086;2023-09-07T09:30:35;101905.26;;;22.65;69.71
33265;BME280;31404;53.974;-1.086;2023-09-07T09:35:35;101904.08;;;21.89;70.77
33265;BME280;31404;53.974;-1.086;2023-09-07T09:40:35;101899.20;;;23.18;68.03
33265;BME280;31404;53.974;-1.086;2023-09-07T09:45:35;101905.42;;;22.83;69.50
33265;BME280;31404;53.974;-1.086;2023-09-07T09:50:35;101900.13;;;24.39;64.16
33265;BME280;31404;53.974;-1.086;2023-09-07T09:55:35;101898.99;;;24.50;63.90
33265;BME280;31404;53.974;-1.086;2023-09-07T10:00:35;101898.91;;;25.35;61.21
33265;BME280;31404;53.974;-1.086;2023-09-07T10:05:35;101895.23;;;24.71;63.82
33265;BME280;31404;53.974;-1.086;2023-09-07T10:10:35;101899.49;;;25.48;60.98
33265;BME280;31404;53.974;-1.086;2023-09-07T10:15:35;101901.15;;;21.93;69.04
33265;BME280;31404;53.974;-1.086;2023-09-07T10:25:36;101888.81;;;24.33;64.44
33265;BME280;31404;53.974;-1.086;2023-09-07T10:30:35;101880.60;;;25.67;61.26
33265;BME280;31404;53.974;-1.086;2023-09-07T10:35:35;101875.77;;;24.42;63.61
33265;BME280;31404;53.974;-1.086;2023-09-07T10:40:34;101870.98;;;25.44;62.77
33265;BME280;31404;53.974;-1.086;2023-09-07T10:45:34;101854.73;;;26.04;60.47
33265;BME280;31404;53.974;-1.086;2023-09-07T10:55:37;101854.06;;;24.93;63.68
33265;BME280;31404;53.974;-1.086;2023-09-07T11:00:35;101860.73;;;23.19;68.76
33265;BME280;31404;53.974;-1.086;2023-09-07T11:05:35;101851.01;;;24.78;63.92
33265;BME280;31404;53.974;-1.086;2023-09-07T11:10:35;101843.57;;;26.18;60.88
33265;BME280;31404;53.974;-1.086;2023-09-07T11:15:35;101846.19;;;24.09;64.26
33265;BME280;31404;53.974;-1.086;2023-09-07T11:20:36;101837.94;;;24.88;62.85
33265;BME280;31404;53.974;-1.086;2023-09-07T11:25:35;101831.97;;;25.35;62.07
33265;BME280;31404;53.974;-1.086;2023-09-07T11:30:35;101824.77;;;25.01;61.93
33265;BME280;31404;53.974;-1.086;2023-09-07T11:35:35;101826.00;;;25.10;61.77
33265;BME280;31404;53.974;-1.086;2023-09-07T11:40:35;101828.26;;;25.43;60.31
33265;BME280;31404;53.974;-1.086;2023-09-07T11:45:35;101826.11;;;26.18;59.59
33265;BME280;31404;53.974;-1.086;2023-09-07T11:50:35;101824.99;;;24.46;64.28
33265;BME280;31404;53.974;-1.086;2023-09-07T11:55:35;101825.44;;;25.66;62.01
33265;BME280;31404;53.974;-1.086;2023-09-07T12:00:35;101825.08;;;25.33;63.87
33265;BME280;31404;53.974;-1.086;2023-09-07T12:05:35;101819.57;;;24.64;65.26
33265;BME280;31404;53.974;-1.086;2023-09-07T12:10:35;101819.87;;;24.10;67.72
33265;BME280;31404;53.974;-1.086;2023-09-07T12:15:35;101807.98;;;24.30;67.90
33265;BME280;31404;53.974;-1.086;2023-09-07T12:20:35;101806.00;;;23.98;68.12
33265;BME280;31404;53.974;-1.086;2023-09-07T12:25:35;101800.11;;;26.31;62.92
33265;BME280;31404;53.974;-1.086;2023-09-07T12:30:35;101794.03;;;24.64;66.36
33265;BME280;31404;53.974;-1.086;2023-09-07T12:35:34;101793.90;;;27.00;61.86
33265;BME280;31404;53.974;-1.086;2023-09-07T12:40:34;101795.80;;;25.41;65.21
33265;BME280;31404;53.974;-1.086;2023-09-07T12:45:34;101793.25;;;24.37;68.48
33265;BME280;31404;53.974;-1.086;2023-09-07T12:50:34;101787.28;;;24.08;71.10
33265;BME280;31404;53.974;-1.086;2023-09-07T12:55:34;101778.44;;;24.28;72.16
33265;BME280;31404;53.974;-1.086;2023-09-07T13:00:34;101778.59;;;23.62;75.32
33265;BME280;31404;53.974;-1.086;2023-09-07T13:05:34;101780.82;;;23.56;77.41
33265;BME280;31404;53.974;-1.086;2023-09-07T13:10:34;101772.93;;;25.08;73.34
33265;BME280;31404;53.974;-1.086;2023-09-07T13:15:34;101779.11;;;25.53;71.27
33265;BME280;31404;53.974;-1.086;2023-09-07T13:20:34;101774.44;;;25.23;72.00
33265;BME280;31404;53.974;-1.086;2023-09-07T13:25:39;101772.10;;;27.10;67.58
33265;BME280;31404;53.974;-1.086;2023-09-07T13:30:34;101761.61;;;28.16;63.71
33265;BME280;31404;53.974;-1.086;2023-09-07T13:35:34;101758.32;;;26.35;68.16
33265;BME280;31404;53.974;-1.086;2023-09-07T13:40:34;101747.17;;;28.08;64.75
33265;BME280;31404;53.974;-1.086;2023-09-07T13:45:35;101742.70;;;25.92;68.38
33265;BME280;31404;53.974;-1.086;2023-09-07T13:50:35;101740.29;;;27.20;65.15
33265;BME280;31404;53.974;-1.086;2023-09-07T13:55:35;101739.71;;;26.42;66.24
33265;BME280;31404;53.974;-1.086;2023-09-07T14:00:35;101743.79;;;24.94;69.37
33265;BME280;31404;53.974;-1.086;2023-09-07T14:05:37;101745.66;;;24.42;70.78
33265;BME280;31404;53.974;-1.086;2023-09-07T14:10:36;101729.57;;;25.30;68.46
33265;BME280;31404;53.974;-1.086;2023-09-07T14:15:34;101726.81;;;26.27;65.80
33265;BME280;31404;53.974;-1.086;2023-09-07T14:20:35;101733.30;;;25.25;68.29
33265;BME280;31404;53.974;-1.086;2023-09-07T14:25:34;101729.36;;;26.04;66.80
33265;BME280;31404;53.974;-1.086;2023-09-07T14:35:34;101720.86;;;25.89;66.22
33265;BME280;31404;53.974;-1.086;2023-09-07T14:40:34;101710.96;;;27.71;62.08
33265;BME280;31404;53.974;-1.086;2023-09-07T14:50:34;101699.97;;;27.21;62.57
33265;BME280;31404;53.974;-1.086;2023-09-07T14:55:34;101702.20;;;25.72;62.42
33265;BME280;31404;53.974;-1.086;2023-09-07T15:00:34;101696.26;;;25.95;62.35
33265;BME280;31404;53.974;-1.086;2023-09-07T15:05:34;101693.25;;;26.94;61.22
33265;BME280;31404;53.974;-1.086;2023-09-07T15:10:34;101691.71;;;26.62;61.23
33265;BME280;31404;53.974;-1.086;2023-09-07T15:15:34;101686.50;;;27.00;60.32
33265;BME280;31404;53.974;-1.086;2023-09-07T15:20:35;101686.03;;;26.44;61.17
33265;BME280;31404;53.974;-1.086;2023-09-07T15:25:35;101677.62;;;25.75;64.50
33265;BME280;31404;53.974;-1.086;2023-09-07T15:30:35;101673.61;;;25.69;64.80
33265;BME280;31404;53.974;-1.086;2023-09-07T15:35:35;101673.01;;;26.29;62.25
33265;BME280;31404;53.974;-1.086;2023-09-07T15:40:35;101664.02;;;24.98;65.60
33265;BME280;31404;53.974;-1.086;2023-09-07T15:45:37;101660.76;;;25.56;64.00
33265;BME280;31404;53.974;-1.086;2023-09-07T15:50:35;101651.41;;;24.91;66.51
33265;BME280;31404;53.974;-1.086;2023-09-07T15:55:35;101644.94;;;25.79;64.97
33265;BME280;31404;53.974;-1.086;2023-09-07T16:00:35;101642.36;;;25.62;65.31
33265;BME280;31404;53.974;-1.086;2023-09-07T16:05:35;101638.75;;;24.91;66.18
33265;BME280;31404;53.974;-1.086;2023-09-07T16:10:35;101640.43;;;26.17;63.74
33265;BME280;31404;53.974;-1.086;2023-09-07T16:15:35;101630.42;;;25.25;66.01
33265;BME280;31404;53.974;-1.086;2023-09-07T16:20:35;101621.18;;;25.29;66.25
33265;BME280;31404;53.974;-1.086;2023-09-07T16:25:35;101619.79;;;24.62;68.39
33265;BME280;31404;53.974;-1.086;2023-09-07T16:30:36;101614.87;;;25.52;65.01
33265;BME280;31404;53.974;-1.086;2023-09-07T16:35:35;101611.47;;;24.74;67.20
33265;BME280;31404;53.974;-1.086;2023-09-07T16:40:36;101608.96;;;26.28;63.63
33265;BME280;31404;53.974;-1.086;2023-09-07T16:45:34;101607.60;;;25.57;64.68
33265;BME280;31404;53.974;-1.086;2023-09-07T16:50:34;101608.64;;;26.47;61.94
33265;BME280;31404;53.974;-1.086;2023-09-07T16:55:34;101607.47;;;27.47;59.01
33265;BME280;31404;53.974;-1.086;2023-09-07T17:00:34;101607.86;;;26.69;60.82
33265;BME280;31404;53.974;-1.086;2023-09-07T17:05:36;101600.57;;;26.71;60.42
33265;BME280;31404;53.974;-1.086;2023-09-07T17:10:35;101603.62;;;26.44;61.18
33265;BME280;31404;53.974;-1.086;2023-09-07T17:15:34;101599.03;;;26.93;61.08
33265;BME280;31404;53.974;-1.086;2023-09-07T17:20:35;101605.12;;;25.56;64.63
33265;BME280;31404;53.974;-1.086;2023-09-07T17:25:34;101600.34;;;24.81;66.57
33265;BME280;31404;53.974;-1.086;2023-09-07T17:30:35;101601.87;;;23.66;69.41
33265;BME280;31404;53.974;-1.086;2023-09-07T17:35:35;101602.84;;;24.04;69.41
33265;BME280;31404;53.974;-1.086;2023-09-07T17:40:34;101607.92;;;23.44;71.22
33265;BME280;31404;53.974;-1.086;2023-09-07T17:45:34;101605.07;;;22.95;73.10
33265;BME280;31404;53.974;-1.086;2023-09-07T17:50:34;101607.35;;;24.00;70.49
33265;BME280;31404;53.974;-1.086;2023-09-07T17:55:35;101608.84;;;23.94;70.96
33265;BME280;31404;53.974;-1.086;2023-09-07T18:00:35;101612.13;;;23.83;71.60
33265;BME280;31404;53.974;-1.086;2023-09-07T18:05:35;101604.78;;;22.17;78.62
33265;BME280;31404;53.974;-1.086;2023-09-07T18:10:35;101600.95;;;23.28;74.41
33265;BME280;31404;53.974;-1.086;2023-09-07T18:15:35;101610.07;;;23.01;77.80
33265;BME280;31404;53.974;-1.086;2023-09-07T18:20:40;101614.82;;;22.22;82.14
33265;BME280;31404;53.974;-1.086;2023-09-07T18:25:35;101615.16;;;22.13;83.76
33265;BME280;31404;53.974;-1.086;2023-09-07T18:30:34;101606.29;;;23.77;77.06
33265;BME280;31404;53.974;-1.086;2023-09-07T18:35:34;101600.61;;;24.43;75.02
33265;BME280;31404;53.974;-1.086;2023-09-07T18:40:34;101610.09;;;24.03;77.89
33265;BME280;31404;53.974;-1.086;2023-09-07T18:45:34;101618.47;;;24.42;75.92
33265;BME280;31404;53.974;-1.086;2023-09-07T18:50:34;101625.22;;;25.78;70.96
33265;BME280;31404;53.974;-1.086;2023-09-07T19:00:35;101622.24;;;24.66;74.51
33265;BME280;31404;53.974;-1.086;2023-09-07T19:05:34;101628.70;;;25.81;70.68
33265;BME280;31404;53.974;-1.086;2023-09-07T19:10:34;101633.71;;;24.37;74.59
33265;BME280;31404;53.974;-1.086;2023-09-07T19:20:35;101632.68;;;24.74;73.23
33265;BME280;31404;53.974;-1.086;2023-09-07T19:25:34;101623.11;;;25.40;70.44
33265;BME280;31404;53.974;-1.086;2023-09-07T19:30:35;101627.38;;;23.54;76.47
33265;BME280;31404;53.974;-1.086;2023-09-07T19:35:35;101628.81;;;24.76;72.18
33265;BME280;31404;53.974;-1.086;2023-09-07T19:40:35;101640.94;;;23.48;76.75
33265;BME280;31404;53.974;-1.086;2023-09-07T19:45:35;101650.30;;;23.83;76.11
33265;BME280;31404;53.974;-1.086;2023-09-07T19:55:35;101649.47;;;24.26;72.07
33265;BME280;31404;53.974;-1.086;2023-09-07T20:00:34;101648.98;;;23.78;71.96
33265;BME280;31404;53.974;-1.086;2023-09-07T20:05:34;101647.87;;;24.31;71.19
33265;BME280;31404;53.974;-1.086;2023-09-07T20:10:35;101655.73;;;24.20;70.76
33265;BME280;31404;53.974;-1.086;2023-09-07T20:15:36;101650.02;;;23.24;72.80
33265;BME280;31404;53.974;-1.086;2023-09-07T20:20:35;101651.69;;;23.73;72.15
33265;BME280;31404;53.974;-1.086;2023-09-07T20:25:36;101653.17;;;22.53;76.29
33265;BME280;31404;53.974;-1.086;2023-09-07T20:30:34;101651.38;;;21.63;79.33
33265;BME280;31404;53.974;-1.086;2023-09-07T20:35:34;101664.87;;;22.05;77.84
33265;BME280;31404;53.974;-1.086;2023-09-07T20:40:34;101669.95;;;22.34;77.04
33265;BME280;31404;53.974;-1.086;2023-09-07T20:50:35;101688.32;;;22.25;78.55
33265;BME280;31404;53.974;-1.086;2023-09-07T20:55:35;101690.52;;;22.59;76.79
33265;BME280;31404;53.974;-1.086;2023-09-07T21:00:35;101689.26;;;23.02;73.77
33265;BME280;31404;53.974;-1.086;2023-09-07T21:05:35;101699.59;;;22.69;75.18
33265;BME280;31404;53.974;-1.086;2023-09-07T21:10:34;101709.23;;;21.18;79.05
33265;BME280;31404;53.974;-1.086;2023-09-07T21:20:34;101728.44;;;20.37;85.56
33265;BME280;31404;53.974;-1.086;2023-09-07T21:25:35;101718.30;;;21.09;82.40
33265;BME280;31404;53.974;-1.086;2023-09-07T21:30:35;101716.49;;;19.84;87.09
33265;BME280;31404;53.974;-1.086;2023-09-07T21:35:35;101714.61;;;19.40;92.02
33265;BME280;31404;53.974;-1.086;2023-09-07T21:40:35;101718.55;;;20.17;89.76
33265;BME280;31404;53.974;-1.086;2023-09-07T21:45:34;101721.12;;;19.96;88.24
33265;BME280;31404;53.974;-1.086;2023-09-07T21:50:34;101725.64;;;18.29;100.00
33265;BME280;31404;53.974;-1.086;2023-09-07T21:55:34;101723.67;;;18.70;97.33
33265;BME280;31404;53.974;-1.086;2023-09-07T22:00:34;101726.22;;;18.07;100.00
33265;BME280;31404;53.974;-1.086;2023-09-07T22:05:34;101732.99;;;18.17;100.00
33265;BME280;31404;53.974;-1.086;2023-09-07T22:10:34;101735.03;;;18.08;100.00
33265;BME280;31404;53.974;-1.086;2023-09-07T22:15:34;101729.29;;;18.30;100.00
33265;BME280;31404;53.974;-1.086;2023-09-07T22:20:34;101721.40;;;18.35;100.00
33265;BME280;31404;53.974;-1.086;2023-09-07T22:25:34;101708.21;;;17.13;100.00
33265;BME280;31404;53.974;-1.086;2023-09-07T22:30:34;101708.21;;;18.94;96.72
33265;BME280;31404;53.974;-1.086;2023-09-07T22:35:34;101703.49;;;18.16;99.04
33265;BME280;31404;53.974;-1.086;2023-09-07T22:40:35;101704.91;;;17.30;100.00
33265;BME280;31404;53.974;-1.086;2023-09-07T22:45:36;101698.80;;;19.02;96.26
33265;BME280;31404;53.974;-1.086;2023-09-07T22:50:34;101695.96;;;18.70;100.00
33265;BME280;31404;53.974;-1.086;2023-09-07T22:55:39;101692.17;;;19.96;89.99
33265;BME280;31404;53.974;-1.086;2023-09-07T23:00:36;101704.94;;;18.70;94.12
33265;BME280;31404;53.974;-1.086;2023-09-07T23:05:38;101710.33;;;17.73;100.00
33265;BME280;31404;53.974;-1.086;2023-09-07T23:10:34;101707.47;;;18.43;93.06
33265;BME280;31404;53.974;-1.086;2023-09-07T23:15:35;101710.10;;;18.05;98.25
33265;BME280;31404;53.974;-1.086;2023-09-07T23:20:41;101712.77;;;18.55;95.38
33265;BME280;31404;53.974;-1.086;2023-09-07T23:25:34;101710.46;;;18.70;94.08
33265;BME280;31404;53.974;-1.086;2023-09-07T23:30:34;101712.61;;;17.39;98.04
33265;BME280;31404;53.974;-1.086;2023-09-07T23:35:35;101700.42;;;17.75;100.00
33265;BME280;31404;53.974;-1.086;2023-09-07T23:40:35;101685.62;;;16.22;100.00
33265;BME280;31404;53.974;-1.086;2023-09-07T23:45:35;101673.74;;;17.80;100.00
33265;BME280;31404;53.974;-1.086;2023-09-07T23:50:34;101679.15;;;17.83;99.10
33265;BME280;31404;53.974;-1.086;2023-09-07T23:55:35;101676.05;;;17.60;100.00
